createdAt,value
2023-02-28T00:00:40.136Z,23.60
2023-02-28T00:03:18.783Z,28.60
2023-02-28T00:05:48.964Z,28.10
2023-02-28T00:08:24.886Z,25.90
2023-02-28T00:10:52.421Z,23.70
2023-02-28T00:13:19.598Z,23.90
2023-02-28T00:16:10.704Z,24.00
2023-02-28T00:18:37.965Z,25.00
2023-02-28T00:21:08.298Z,23.40
2023-02-28T00:23:36.512Z,25.90
2023-02-28T00:26:04.167Z,25.40
2023-02-28T00:28:31.690Z,20.90
2023-02-28T00:31:19.178Z,24.00
2023-02-28T00:33:56.628Z,21.20
2023-02-28T00:36:24.097Z,22.40
2023-02-28T00:38:51.257Z,27.20
2023-02-28T00:41:18.696Z,25.50
2023-02-28T00:43:48.715Z,29.20
2023-02-28T00:46:15.899Z,25.30
2023-02-28T00:48:43.515Z,23.70
2023-02-28T00:51:31.293Z,24.60
2023-02-28T00:54:19.269Z,26.20
2023-02-28T00:56:55.960Z,23.10
2023-02-28T00:59:36.198Z,20.70
2023-02-28T01:02:07.366Z,20.80
2023-02-28T01:04:45.112Z,18.30
2023-02-28T01:07:12.984Z,17.40
2023-02-28T01:10:00.343Z,18.10
2023-02-28T01:12:47.790Z,19.10
2023-02-28T01:15:16.943Z,18.60
2023-02-28T01:17:45.911Z,16.80
2023-02-28T01:20:33.430Z,19.40
2023-02-28T01:23:20.898Z,19.30
2023-02-28T01:25:51.688Z,17.00
2023-02-28T01:28:39.010Z,21.20
2023-02-28T01:31:10.376Z,18.40
2023-02-28T01:33:50.269Z,19.90
2023-02-28T01:36:28.863Z,22.10
2023-02-28T01:38:59.037Z,24.70
2023-02-28T01:45:00.311Z,29.40
2023-02-28T01:47:36.429Z,22.60
2023-02-28T01:50:27.611Z,23.30
2023-02-28T01:53:19.933Z,24.10
2023-02-28T01:55:51.866Z,21.80
2023-02-28T01:58:40.210Z,23.70
2023-02-28T02:01:07.693Z,24.90
2023-02-28T02:03:58.600Z,23.90
2023-02-28T02:06:35.440Z,23.90
2023-02-28T02:09:04.088Z,22.10
2023-02-28T02:11:47.556Z,23.10
2023-02-28T02:15:01.400Z,27.70
2023-02-28T02:17:55.148Z,22.40
2023-02-28T02:21:16.207Z,21.00
2023-02-28T02:24:38.365Z,19.00
2023-02-28T02:27:41.950Z,23.80
2023-02-28T02:30:50.003Z,23.10
2023-02-28T02:33:40.322Z,21.70
2023-02-28T02:36:16.842Z,18.10
2023-02-28T02:39:01.559Z,19.10
2023-02-28T02:41:47.301Z,20.20
2023-02-28T02:44:42.486Z,23.20
2023-02-28T02:47:13.303Z,21.10
2023-02-28T02:49:43.121Z,26.60
2023-02-28T02:52:36.936Z,23.90
2023-02-28T02:55:26.029Z,27.10
2023-02-28T02:57:57.127Z,25.70
2023-02-28T03:00:28.497Z,26.80
2023-02-28T03:02:57.187Z,27.40
2023-02-28T03:05:32.697Z,26.50
2023-02-28T03:08:19.324Z,27.80
2023-02-28T03:11:10.214Z,27.30
2023-02-28T03:14:17.229Z,30.00
2023-02-28T03:19:55.074Z,27.50
2023-02-28T03:22:53.701Z,29.80
2023-02-28T03:25:29.757Z,30.30
2023-02-28T03:28:04.222Z,34.10
2023-02-28T03:30:58.797Z,31.60
2023-02-28T03:33:29.960Z,32.30
2023-02-28T03:36:13.594Z,29.70
2023-02-28T03:38:44.637Z,27.60
2023-02-28T03:41:38.076Z,30.50
2023-02-28T03:44:18.536Z,28.00
2023-02-28T03:46:51.294Z,31.40
2023-02-28T03:49:44.596Z,28.70
2023-02-28T03:52:25.194Z,26.70
2023-02-28T03:54:57.903Z,39.40
2023-02-28T03:57:34.503Z,32.10
2023-02-28T04:00:10.773Z,31.40
2023-02-28T04:02:53.832Z,36.00
2023-02-28T04:05:26.464Z,34.30
2023-02-28T04:08:13.839Z,33.20
2023-02-28T04:10:41.990Z,38.90
2023-02-28T04:13:09.171Z,35.90
2023-02-28T04:15:43.844Z,37.40
2023-02-28T04:18:13.556Z,36.40
2023-02-28T04:20:40.801Z,40.40
2023-02-28T04:23:10.916Z,37.70
2023-02-28T04:26:01.612Z,38.20
2023-02-28T04:28:47.923Z,39.80
2023-02-28T04:31:23.826Z,37.80
2023-02-28T04:34:11.406Z,40.70
2023-02-28T04:36:59.620Z,42.90
2023-02-28T04:39:37.154Z,44.10
2023-02-28T04:42:07.508Z,41.80
2023-02-28T04:44:55.000Z,44.90
2023-02-28T04:47:31.664Z,38.70
2023-02-28T04:49:59.394Z,40.60
2023-02-28T04:52:31.007Z,40.20
2023-02-28T04:55:10.217Z,37.70
2023-02-28T04:57:38.203Z,45.00
2023-02-28T05:00:17.966Z,44.80
2023-02-28T05:03:05.339Z,42.00
2023-02-28T05:05:33.845Z,41.80
2023-02-28T05:08:03.837Z,39.30
2023-02-28T05:10:30.925Z,44.80
2023-02-28T05:13:07.240Z,45.30
2023-02-28T05:15:55.211Z,43.70
2023-02-28T05:18:43.417Z,34.50
2023-02-28T05:21:30.824Z,32.80
2023-02-28T05:24:14.516Z,48.30
2023-02-28T05:26:43.739Z,45.20
2023-02-28T05:29:16.382Z,47.10
2023-02-28T05:32:03.767Z,44.60
2023-02-28T05:34:34.607Z,40.40
2023-02-28T05:37:01.826Z,43.10
2023-02-28T05:39:49.419Z,42.60
2023-02-28T05:42:35.517Z,48.20
2023-02-28T05:45:04.603Z,40.40
2023-02-28T05:47:35.087Z,43.90
2023-02-28T05:50:05.179Z,43.80
2023-02-28T05:52:40.426Z,39.10
2023-02-28T05:55:27.970Z,42.40
2023-02-28T05:58:06.441Z,40.40
2023-02-28T06:00:41.494Z,45.00
2023-02-28T06:03:19.994Z,45.70
2023-02-28T06:06:05.943Z,39.00
2023-02-28T06:08:36.428Z,38.20
2023-02-28T06:11:06.830Z,47.40
2023-02-28T06:13:44.409Z,43.10
2023-02-28T06:16:33.365Z,41.30
2023-02-28T06:19:04.258Z,40.60
2023-02-28T06:21:32.421Z,40.30
2023-02-28T06:24:20.250Z,40.90
2023-02-28T06:26:52.430Z,40.30
2023-02-28T06:29:19.877Z,41.30
2023-02-28T06:31:47.573Z,38.90
2023-02-28T06:36:54.751Z,45.00
2023-02-28T06:39:22.870Z,37.00
2023-02-28T06:41:55.758Z,32.30
2023-02-28T06:44:23.580Z,35.80
2023-02-28T06:46:51.240Z,34.40
2023-02-28T06:49:27.315Z,31.00
2023-02-28T06:51:54.837Z,32.90
2023-02-28T06:54:21.969Z,33.20
2023-02-28T06:56:50.087Z,33.00
2023-02-28T06:59:17.337Z,29.40
2023-02-28T07:01:44.795Z,26.50
2023-02-28T07:04:12.179Z,26.20
2023-02-28T07:06:39.725Z,25.50
2023-02-28T07:09:07.887Z,22.90
2023-02-28T07:11:35.483Z,19.30
2023-02-28T07:14:02.996Z,18.70
2023-02-28T07:16:30.190Z,21.10
2023-02-28T07:18:57.601Z,21.00
2023-02-28T07:21:25.049Z,14.90
2023-02-28T07:23:52.813Z,15.20
2023-02-28T07:26:22.339Z,12.80
2023-02-28T07:28:50.577Z,16.10
2023-02-28T07:31:19.549Z,10.70
2023-02-28T07:33:46.977Z,10.80
2023-02-28T07:36:16.591Z,8.90
2023-02-28T07:38:46.314Z,8.70
2023-02-28T07:41:15.284Z,11.50
2023-02-28T07:43:42.290Z,8.00
2023-02-28T07:46:11.923Z,9.40
2023-02-28T07:48:39.867Z,8.30
2023-02-28T07:51:07.471Z,10.00
2023-02-28T07:53:34.501Z,10.00
2023-02-28T07:56:02.435Z,8.60
2023-02-28T07:58:31.872Z,7.70
2023-02-28T08:00:59.358Z,9.40
2023-02-28T08:03:27.322Z,7.50
2023-02-28T08:05:55.029Z,13.90
2023-02-28T08:08:22.297Z,7.50
2023-02-28T08:10:49.705Z,7.30
2023-02-28T08:13:16.991Z,7.80
2023-02-28T08:15:47.116Z,10.10
2023-02-28T08:18:14.568Z,7.20
2023-02-28T08:20:41.623Z,8.40
2023-02-28T08:23:08.802Z,10.30
2023-02-28T08:25:36.360Z,9.40
2023-02-28T08:28:03.477Z,11.40
2023-02-28T08:30:30.528Z,12.10
2023-02-28T08:32:57.929Z,8.80
2023-02-28T08:35:25.123Z,12.80
2023-02-28T08:37:52.813Z,9.20
2023-02-28T08:40:20.576Z,11.30
2023-02-28T08:42:48.324Z,12.70
2023-02-28T08:45:16.762Z,11.80
2023-02-28T08:47:44.034Z,12.40
2023-02-28T08:50:13.800Z,8.90
2023-02-28T08:52:41.559Z,10.90
2023-02-28T08:55:11.368Z,9.60
2023-02-28T08:57:38.911Z,7.80
2023-02-28T09:00:08.477Z,9.60
2023-02-28T09:02:35.980Z,9.70
2023-02-28T09:05:04.233Z,11.70
2023-02-28T09:07:31.590Z,12.80
2023-02-28T09:09:59.414Z,10.50
2023-02-28T09:12:27.956Z,12.60
2023-02-28T09:14:56.323Z,11.20
2023-02-28T09:17:24.490Z,12.10
2023-02-28T09:19:58.449Z,15.80
2023-02-28T09:22:26.009Z,11.80
2023-02-28T09:24:53.093Z,11.70
2023-02-28T09:27:20.531Z,10.70
2023-02-28T09:29:47.836Z,12.80
2023-02-28T09:32:15.035Z,10.70
2023-02-28T09:34:42.685Z,10.20
2023-02-28T09:37:09.922Z,8.90
2023-02-28T09:39:37.020Z,8.90
2023-02-28T09:42:06.389Z,11.50
2023-02-28T09:44:37.546Z,9.80
2023-02-28T09:47:13.789Z,10.90
2023-02-28T09:49:47.338Z,11.10
2023-02-28T09:52:20.730Z,9.50
2023-02-28T09:54:48.467Z,10.40
2023-02-28T09:57:26.154Z,8.80
2023-02-28T10:00:05.919Z,10.30
2023-02-28T10:03:04.175Z,9.40
2023-02-28T10:05:35.912Z,9.00
2023-02-28T10:08:09.856Z,12.80
2023-02-28T10:10:42.335Z,15.00
2023-02-28T10:13:18.074Z,12.40
2023-02-28T10:15:47.363Z,16.30
2023-02-28T10:18:18.976Z,10.80
2023-02-28T10:20:47.580Z,10.60
2023-02-28T10:23:19.561Z,16.00
2023-02-28T10:25:52.882Z,10.10
2023-02-28T10:28:21.194Z,11.40
2023-02-28T10:30:50.076Z,11.10
2023-02-28T10:33:25.385Z,11.90
2023-02-28T10:35:53.257Z,10.30
2023-02-28T10:38:23.751Z,12.00
2023-02-28T10:40:51.127Z,12.40
2023-02-28T10:43:25.726Z,13.80
2023-02-28T10:46:16.594Z,15.40
2023-02-28T10:48:46.822Z,13.60
2023-02-28T10:51:15.428Z,13.60
2023-02-28T10:54:01.205Z,11.50
2023-02-28T10:56:31.075Z,13.20
2023-02-28T10:59:01.013Z,9.90
2023-02-28T11:01:44.519Z,14.40
2023-02-28T11:04:41.303Z,11.60
2023-02-28T11:07:22.974Z,11.10
2023-02-28T11:10:02.096Z,10.50
2023-02-28T11:12:33.997Z,13.50
2023-02-28T11:15:27.302Z,12.60
2023-02-28T11:18:01.131Z,11.50
2023-02-28T11:20:31.125Z,13.30
2023-02-28T11:22:59.685Z,11.60
2023-02-28T11:25:29.032Z,13.20
2023-02-28T11:27:58.897Z,12.00
2023-02-28T11:30:34.660Z,14.60
2023-02-28T11:33:02.984Z,13.20
2023-02-28T11:35:37.044Z,13.00
2023-02-28T11:38:07.402Z,14.40
2023-02-28T11:40:43.877Z,15.20
2023-02-28T11:43:29.556Z,17.90
2023-02-28T11:46:15.049Z,12.10
2023-02-28T11:48:54.101Z,16.20
2023-02-28T11:51:29.962Z,15.00
2023-02-28T11:54:16.342Z,16.50
2023-02-28T11:56:54.527Z,13.00
2023-02-28T11:59:44.839Z,15.90
2023-02-28T12:02:26.838Z,16.00
2023-02-28T12:05:04.262Z,17.40
2023-02-28T12:07:41.388Z,17.50
2023-02-28T12:10:21.143Z,15.00
2023-02-28T12:12:59.489Z,13.10
2023-02-28T12:15:46.866Z,14.10
2023-02-28T12:18:34.134Z,16.50
2023-02-28T12:21:22.486Z,19.60
2023-02-28T12:24:27.210Z,15.30
2023-02-28T12:26:56.349Z,15.60
2023-02-28T12:29:29.928Z,16.30
2023-02-28T12:32:02.305Z,17.50
2023-02-28T12:34:37.616Z,16.60
2023-02-28T12:37:27.039Z,13.30
2023-02-28T12:40:12.100Z,15.50
2023-02-28T12:42:45.286Z,15.20
2023-02-28T12:45:21.197Z,18.00
2023-02-28T12:48:04.158Z,15.30
2023-02-28T12:50:39.772Z,13.60
2023-02-28T12:53:12.279Z,16.40
2023-02-28T12:55:44.447Z,16.80
2023-02-28T12:58:23.001Z,14.30
2023-02-28T13:01:08.070Z,15.70
2023-02-28T13:04:01.368Z,16.90
2023-02-28T13:06:52.363Z,17.90
2023-02-28T13:09:20.840Z,19.20
2023-02-28T13:11:53.927Z,16.10
2023-02-28T13:14:28.644Z,14.40
2023-02-28T13:17:03.514Z,15.40
2023-02-28T13:20:01.936Z,13.90
2023-02-28T13:22:46.297Z,14.70
2023-02-28T13:25:50.473Z,15.80
2023-02-28T13:29:09.771Z,16.90
2023-02-28T13:32:07.191Z,18.60
2023-02-28T13:34:34.902Z,15.40
2023-02-28T13:37:32.689Z,16.20
2023-02-28T13:40:37.956Z,15.80
2023-02-28T13:43:06.439Z,12.90
2023-02-28T13:45:39.473Z,14.40
2023-02-28T13:48:28.160Z,13.20
2023-02-28T13:50:55.418Z,14.60
2023-02-28T13:56:37.990Z,21.30
2023-02-28T13:59:18.859Z,14.50
2023-02-28T14:01:57.232Z,16.10
2023-02-28T14:05:02.503Z,17.00
2023-02-28T14:07:36.295Z,16.20
2023-02-28T14:10:09.611Z,13.10
2023-02-28T14:13:05.434Z,17.50
2023-02-28T14:15:52.421Z,15.50
2023-02-28T14:18:27.285Z,13.30
2023-02-28T14:21:26.946Z,14.80
2023-02-28T14:24:44.538Z,18.50
2023-02-28T14:27:30.553Z,18.30
2023-02-28T14:30:45.407Z,12.40
2023-02-28T14:33:29.588Z,18.30
2023-02-28T14:36:08.296Z,16.60
2023-02-28T14:38:39.072Z,13.60
2023-02-28T14:41:36.540Z,15.60
2023-02-28T14:44:21.219Z,16.60
2023-02-28T14:47:18.339Z,14.00
2023-02-28T14:50:07.165Z,14.70
2023-02-28T14:52:57.171Z,15.60
2023-02-28T14:55:36.156Z,19.40
2023-02-28T14:58:07.604Z,18.60
2023-02-28T15:00:38.745Z,16.40
2023-02-28T15:03:23.427Z,15.20
2023-02-28T15:06:19.134Z,16.70
2023-02-28T15:12:04.643Z,14.60
2023-02-28T15:14:48.819Z,15.80
2023-02-28T15:17:26.971Z,18.30
2023-02-28T15:19:56.336Z,17.30
2023-02-28T15:22:30.508Z,19.30
2023-02-28T15:24:58.198Z,18.70
2023-02-28T15:27:29.045Z,16.30
2023-02-28T15:30:18.138Z,15.50
2023-02-28T15:32:45.583Z,16.10
2023-02-28T15:35:35.228Z,18.60
2023-02-28T15:38:15.830Z,16.40
2023-02-28T15:40:58.556Z,18.00
2023-02-28T15:43:46.018Z,18.20
2023-02-28T15:46:33.798Z,18.10
2023-02-28T15:49:24.870Z,17.50
2023-02-28T15:52:06.047Z,21.50
2023-02-28T15:54:53.950Z,21.00
2023-02-28T15:57:33.460Z,20.80
2023-02-28T16:00:24.286Z,23.70
2023-02-28T16:03:27.273Z,22.70
2023-02-28T16:06:34.172Z,20.70
2023-02-28T16:09:01.868Z,21.20
2023-02-28T16:11:50.912Z,25.50
2023-02-28T16:14:32.040Z,23.40
2023-02-28T16:17:10.241Z,20.80
2023-02-28T16:19:57.759Z,23.20
2023-02-28T16:22:46.636Z,25.00
2023-02-28T16:25:38.482Z,24.70
2023-02-28T16:28:32.438Z,26.70
2023-02-28T16:31:20.956Z,24.00
2023-02-28T16:34:01.123Z,27.30
2023-02-28T16:36:50.883Z,30.10
2023-02-28T16:39:18.625Z,30.70
2023-02-28T16:41:58.960Z,30.40
2023-02-28T16:44:46.692Z,31.00
2023-02-28T16:47:34.743Z,31.50
2023-02-28T16:50:20.168Z,31.10
2023-02-28T16:52:47.830Z,32.10
2023-02-28T16:55:15.338Z,31.70
2023-02-28T16:57:55.911Z,31.90
2023-02-28T17:00:24.424Z,33.60
2023-02-28T17:02:51.956Z,31.60
2023-02-28T17:05:42.095Z,34.60
2023-02-28T17:08:23.074Z,33.70
2023-02-28T17:10:50.418Z,32.30
2023-02-28T17:13:28.324Z,33.50
2023-02-28T17:16:06.675Z,44.10
2023-02-28T17:18:44.443Z,41.80
2023-02-28T17:21:31.076Z,38.60
2023-02-28T17:24:28.931Z,41.10
2023-02-28T17:27:21.833Z,42.60
2023-02-28T17:30:18.897Z,39.80
2023-02-28T17:33:06.457Z,44.50
2023-02-28T17:35:44.670Z,45.00
2023-02-28T17:38:32.500Z,43.50
2023-02-28T17:41:10.952Z,42.10
2023-02-28T17:43:58.572Z,40.80
2023-02-28T17:46:47.365Z,37.50
2023-02-28T17:49:15.013Z,38.50
2023-02-28T17:52:02.860Z,39.60
2023-02-28T17:54:50.146Z,36.20
2023-02-28T17:57:38.196Z,32.90
2023-02-28T18:00:23.472Z,34.20
2023-02-28T18:03:12.122Z,36.70
2023-02-28T18:05:59.549Z,36.40
2023-02-28T18:08:47.615Z,34.80
2023-02-28T18:11:44.867Z,38.70
2023-02-28T18:14:32.420Z,44.90
2023-02-28T18:17:01.962Z,40.10
2023-02-28T18:19:50.039Z,40.10
2023-02-28T18:22:38.066Z,38.40
2023-02-28T18:25:26.325Z,43.50
2023-02-28T18:28:05.912Z,37.40
2023-02-28T18:30:53.393Z,39.70
2023-02-28T18:33:34.465Z,43.40
2023-02-28T18:36:02.022Z,42.90
2023-02-28T18:38:40.857Z,50.70
2023-02-28T18:41:29.344Z,41.30
2023-02-28T18:44:13.761Z,41.60
2023-02-28T18:47:01.616Z,46.90
2023-02-28T18:49:49.084Z,41.70
2023-02-28T18:52:38.430Z,45.40
2023-02-28T18:55:24.557Z,50.20
2023-02-28T18:58:13.045Z,46.80
2023-02-28T19:01:00.527Z,47.10
2023-02-28T19:03:49.735Z,49.40
2023-02-28T19:06:17.984Z,43.70
2023-02-28T19:09:06.849Z,47.30
2023-02-28T19:11:54.363Z,52.60
2023-02-28T19:14:32.391Z,47.80
2023-02-28T19:17:20.358Z,47.50
2023-02-28T19:19:51.113Z,48.10
2023-02-28T19:22:21.851Z,52.10
2023-02-28T19:25:11.142Z,48.50
2023-02-28T19:27:57.774Z,52.70
2023-02-28T19:30:35.773Z,55.00
2023-02-28T19:33:23.393Z,57.00
2023-02-28T19:36:04.310Z,66.30
2023-02-28T19:38:34.513Z,64.30
2023-02-28T19:41:22.561Z,62.80
2023-02-28T19:44:09.979Z,59.70
2023-02-28T19:46:57.772Z,69.70
2023-02-28T19:49:38.236Z,66.40
2023-02-28T19:52:13.245Z,64.40
2023-02-28T19:55:03.184Z,65.20
2023-02-28T19:57:39.403Z,67.70
2023-02-28T20:00:08.502Z,70.20
2023-02-28T20:02:56.295Z,70.90
2023-02-28T20:05:43.704Z,64.00
2023-02-28T20:08:14.106Z,60.60
2023-02-28T20:11:06.610Z,65.10
2023-02-28T20:13:43.609Z,60.60
2023-02-28T20:16:15.637Z,65.40
2023-02-28T20:19:03.756Z,79.10
2023-02-28T20:21:41.308Z,72.80
2023-02-28T20:24:18.818Z,74.30
2023-02-28T20:27:06.489Z,81.20
2023-02-28T20:29:38.611Z,81.20
2023-02-28T20:32:27.062Z,80.30
2023-02-28T20:35:14.535Z,78.10
2023-02-28T20:38:02.065Z,61.20
2023-02-28T20:40:49.862Z,63.30
2023-02-28T20:43:27.445Z,68.70
2023-02-28T20:46:07.184Z,66.40
2023-02-28T20:48:49.892Z,69.50
2023-02-28T20:51:40.506Z,65.70
2023-02-28T20:54:20.855Z,69.10
2023-02-28T20:57:08.661Z,77.10
2023-02-28T20:59:56.080Z,80.10
2023-02-28T21:02:35.606Z,75.20
2023-02-28T21:05:14.610Z,80.10
2023-02-28T21:08:02.624Z,80.80
2023-02-28T21:10:50.005Z,78.60
2023-02-28T21:13:17.839Z,82.20
2023-02-28T21:15:48.053Z,80.40
2023-02-28T21:18:15.802Z,78.90
2023-02-28T21:21:01.456Z,86.10
2023-02-28T21:23:49.522Z,87.10
2023-02-28T21:26:35.483Z,93.00
2023-02-28T21:29:22.974Z,88.90
2023-02-28T21:32:02.347Z,91.50
2023-02-28T21:34:32.124Z,90.20
2023-02-28T21:37:20.640Z,90.30
2023-02-28T21:40:01.989Z,93.80
2023-02-28T21:42:40.476Z,94.70
2023-02-28T21:45:29.382Z,94.70
2023-02-28T21:48:00.101Z,97.90
2023-02-28T21:50:27.575Z,96.10
2023-02-28T21:52:55.413Z,96.40
2023-02-28T21:55:38.268Z,98.30
2023-02-28T21:58:26.598Z,107.00
2023-02-28T22:01:16.236Z,100.40
2023-02-28T22:04:05.228Z,104.10
2023-02-28T22:06:35.745Z,112.50
2023-02-28T22:09:10.954Z,101.10
2023-02-28T22:11:51.890Z,105.00
2023-02-28T22:14:19.036Z,106.50
2023-02-28T22:16:55.107Z,109.60
2023-02-28T22:19:28.394Z,113.20
2023-02-28T22:22:16.787Z,108.70
2023-02-28T22:25:04.339Z,105.20
2023-02-28T22:27:51.721Z,107.40
2023-02-28T22:30:40.706Z,105.20
2023-02-28T22:33:29.243Z,98.30
2023-02-28T22:36:18.980Z,102.00
2023-02-28T22:39:07.277Z,96.60
2023-02-28T22:41:57.362Z,99.40
2023-02-28T22:44:46.843Z,99.10
2023-02-28T22:47:28.982Z,95.30
2023-02-28T22:50:07.261Z,95.90
2023-02-28T22:52:55.005Z,96.30
2023-02-28T22:55:42.275Z,95.60
2023-02-28T22:58:30.329Z,95.40
2023-02-28T23:01:13.737Z,95.10
2023-02-28T23:03:56.805Z,96.40
2023-02-28T23:06:45.885Z,106.60
2023-02-28T23:09:33.339Z,103.30
2023-02-28T23:12:20.813Z,102.80
2023-02-28T23:14:50.988Z,99.30
2023-02-28T23:17:38.344Z,99.80
2023-02-28T23:20:26.211Z,102.60
2023-02-28T23:23:13.827Z,100.60
2023-02-28T23:26:01.379Z,96.00
2023-02-28T23:28:39.672Z,99.70
2023-02-28T23:31:27.429Z,95.50
2023-02-28T23:34:00.714Z,96.70
2023-02-28T23:36:48.260Z,98.60
2023-02-28T23:39:31.280Z,100.10
2023-02-28T23:42:08.850Z,96.90
2023-02-28T23:44:56.182Z,97.00
2023-02-28T23:47:27.454Z,94.90
2023-02-28T23:49:58.010Z,102.20
2023-02-28T23:52:25.395Z,101.70
2023-02-28T23:55:13.928Z,102.30
2023-02-28T23:57:53.202Z,106.60
